»·PEaware :: AAL343 KLAX-KPHX

AAL343 :: KLAX-KPHX

FLIGHT INFORMATION

Flight Status: Arrived
Operator:
American Airlines
More flights by this operator :: More flights under this callsign
Pilot: James W. (12414)
Aircraft: AIRBUS A320
(A320)
More flights by this aircraft type
Origin: KLAX Los Angeles Intl
United States
Destination: KPHX Phoenix Sky Harbor Intl
United States
More flights between these airports :: More routes between these airports
Route: +DOTSS1 CNERY BLH HYDRR1
File this flight plan on PilotEdge
Remarks:
Altitude:
(Current/Filed)
25,000ft
Speed:
(Current/Filed)
400kts
Departed: 11-Jun-17 05:56 PM
Arrived: 11-Jun-17 06:59 PM
Distance/Time
Traveled:
321nm/1:03
Distance/Time
To Go:
Arrived

Flight Plot

Page will automatically refresh every two minutes.

Flight plan parsing failed; only flown route is shown


Map Options




Map Legend


Flown Route
Filed Route
Departure Airport
Arrival Airport
Navaid (VOR, NDB)
Fix

Horizontal Profiles

Position Reports

Time Latitude Longitude Heading Altitude Ground
Speed
11-Jun-17 17:36 33.939684 -118.406552 353 133ft 0kts
11-Jun-17 17:37 33.939684 -118.406552 353 133ft 0kts
11-Jun-17 17:38 33.939684 -118.406552 353 133ft 0kts
11-Jun-17 17:39 33.939684 -118.406552 353 133ft 0kts
11-Jun-17 17:40 33.939684 -118.406552 353 133ft 0kts
11-Jun-17 17:41 33.939684 -118.406552 353 133ft 0kts
11-Jun-17 17:42 33.939684 -118.406552 353 133ft 0kts
11-Jun-17 17:43 33.939684 -118.406552 353 133ft 0kts
11-Jun-17 17:44 33.939684 -118.406552 353 133ft 0kts
11-Jun-17 17:45 33.939684 -118.406552 353 133ft 0kts
11-Jun-17 17:46 33.939670 -118.406549 353 133ft 0kts
11-Jun-17 17:47 33.939024 -118.406425 350 133ft 0kts
11-Jun-17 17:48 33.939024 -118.406425 350 133ft 0kts
11-Jun-17 17:49 33.939024 -118.406425 350 133ft 0kts
11-Jun-17 17:50 33.939024 -118.406425 350 133ft 0kts
11-Jun-17 17:51 33.939167 -118.406416 20 133ft 2kts
11-Jun-17 17:52 33.939143 -118.405630 101 133ft 10kts
11-Jun-17 17:53 33.939759 -118.398609 85 133ft 24kts
11-Jun-17 17:54 33.940437 -118.391631 83 133ft 20kts
11-Jun-17 17:55 33.940941 -118.383470 126 133ft 16kts
11-Jun-17 17:56 33.940699 -118.380682 100 133ft 0kts
11-Jun-17 17:57 33.939763 -118.380857 264 133ft 0kts
11-Jun-17 17:58 33.935557 -118.423245 263 593ft 237kts
11-Jun-17 17:59 33.906700 -118.494963 232 2208ft 232kts
11-Jun-17 18:00 33.863024 -118.553701 210 4135ft 256kts
11-Jun-17 18:01 33.790181 -118.544990 171 6216ft 276kts
11-Jun-17 18:02 33.714807 -118.524405 159 8220ft 287kts
11-Jun-17 18:03 33.675053 -118.442456 110 10305ft 303kts
11-Jun-17 18:04 33.646848 -118.347414 99 12298ft 313kts
11-Jun-17 18:05 33.644860 -118.244174 87 12965ft 316kts
11-Jun-17 18:06 33.644705 -118.140691 87 13237ft 317kts
11-Jun-17 18:07 33.644633 -118.030670 87 15098ft 353kts
11-Jun-17 18:08 33.644430 -117.911030 87 16934ft 381kts
11-Jun-17 18:09 33.643338 -117.797459 98 18529ft 399kts
11-Jun-17 18:10 33.614208 -117.673516 106 20294ft 407kts
11-Jun-17 18:11 33.583547 -117.549578 106 22021ft 412kts
11-Jun-17 18:12 33.551502 -117.420893 106 23805ft 417kts
11-Jun-17 18:13 33.519011 -117.290190 106 24965ft 442kts
11-Jun-17 18:14 33.503891 -117.140941 89 24969ft 473kts
11-Jun-17 18:15 33.501474 -116.985568 88 24970ft 473kts
11-Jun-17 18:16 33.499525 -116.837076 89 24968ft 473kts
11-Jun-17 18:17 33.497154 -116.684789 89 24806ft 474kts
11-Jun-17 18:18 33.494470 -116.530642 89 24755ft 475kts
11-Jun-17 18:19 33.491595 -116.375448 89 24753ft 475kts
11-Jun-17 18:20 33.489170 -116.220991 89 24753ft 475kts
11-Jun-17 18:21 33.486694 -116.064612 87 24753ft 475kts
11-Jun-17 18:22 33.519812 -115.919357 67 24754ft 467kts
11-Jun-17 18:23 33.560517 -115.780357 67 24752ft 467kts
11-Jun-17 18:24 33.601963 -115.637730 67 24752ft 467kts
11-Jun-17 18:25 33.615210 -115.485063 89 24752ft 475kts
11-Jun-17 18:26 33.611710 -115.329931 89 24753ft 475kts
11-Jun-17 18:27 33.607707 -115.173917 89 24733ft 477kts
11-Jun-17 18:28 33.603500 -115.017947 89 24726ft 477kts
11-Jun-17 18:29 33.599398 -114.869297 89 24741ft 476kts
11-Jun-17 18:30 33.586916 -114.714433 103 24750ft 478kts
11-Jun-17 18:31 33.557654 -114.563492 102 24722ft 479kts
11-Jun-17 18:32 33.527726 -114.411202 102 24726ft 479kts
11-Jun-17 18:33 33.498022 -114.261162 102 24723ft 456kts
11-Jun-17 18:34 33.469766 -114.117598 102 24726ft 451kts
11-Jun-17 18:35 33.441986 -113.979262 102 24745ft 451kts
11-Jun-17 18:36 33.414115 -113.839478 102 23162ft 445kts
11-Jun-17 18:37 33.386304 -113.701213 103 21781ft 431kts
11-Jun-17 18:38 33.358717 -113.565349 103 21778ft 431kts
11-Jun-17 18:39 33.331743 -113.429258 100 21508ft 431kts
11-Jun-17 18:40 33.308393 -113.293975 100 19268ft 418kts
11-Jun-17 18:41 33.287581 -113.162626 98 17041ft 406kts
11-Jun-17 18:42 33.275400 -113.033672 85 14876ft 390kts
11-Jun-17 18:43 33.278093 -112.913484 86 13267ft 366kts
11-Jun-17 18:44 33.281759 -112.806239 81 11348ft 344kts
11-Jun-17 18:45 33.291893 -112.701040 81 10779ft 321kts
11-Jun-17 18:46 33.301594 -112.596985 81 10778ft 321kts
11-Jun-17 18:47 33.311246 -112.492455 81 10778ft 322kts
11-Jun-17 18:48 33.320827 -112.387531 81 10779ft 322kts
11-Jun-17 18:49 33.330107 -112.285299 81 9019ft 312kts
11-Jun-17 18:50 33.338119 -112.195893 80 8980ft 254kts
11-Jun-17 18:51 33.345468 -112.114134 80 8745ft 234kts
11-Jun-17 18:52 33.346711 -112.037196 88 6702ft 235kts
11-Jun-17 18:53 33.345784 -111.964220 90 4550ft 234kts
11-Jun-17 18:54 33.347039 -111.898583 93 3993ft 175kts
11-Jun-17 18:55 33.357735 -111.845707 28 3992ft 185kts
11-Jun-17 18:56 33.406547 -111.836426 352 3989ft 177kts
11-Jun-17 18:57 33.442061 -111.865791 302 2850ft 157kts
11-Jun-17 18:58 33.440849 -111.910003 265 2418ft 138kts
11-Jun-17 18:59 33.440707 -111.954436 266 1799ft 137kts
11-Jun-17 19:00 33.440845 -111.998676 265 1143ft 123kts
11-Jun-17 19:01 33.439811 -112.013115 105 1142ft 12kts
11-Jun-17 19:02 33.439732 -112.005229 88 1142ft 26kts
11-Jun-17 19:03 33.438549 -112.001512 203 1142ft 6kts

Navigation Log

Ident Type
Flight plan parsing failed, navigation log unavailable